createdAt,value
2023-01-09T00:01:16.352Z,274.30
2023-01-09T00:03:44.333Z,270.90
2023-01-09T00:06:13.353Z,282.27
2023-01-09T00:08:41.283Z,252.33
2023-01-09T00:11:09.422Z,262.87
2023-01-09T00:13:37.861Z,258.57
2023-01-09T00:16:06.198Z,260.27
2023-01-09T00:18:34.344Z,254.43
2023-01-09T00:21:02.654Z,266.47
2023-01-09T00:23:31.804Z,270.77
2023-01-09T00:26:04.295Z,268.63
2023-01-09T00:28:32.262Z,294.37
2023-01-09T00:31:01.565Z,291.97
2023-01-09T00:33:30.965Z,284.87
2023-01-09T00:35:58.679Z,290.03
2023-01-09T00:38:26.538Z,278.13
2023-01-09T00:40:56.554Z,276.40
2023-01-09T00:43:29.326Z,268.33
2023-01-09T00:45:57.076Z,281.37
2023-01-09T00:48:26.992Z,288.63
2023-01-09T00:50:56.949Z,275.10
2023-01-09T00:53:28.629Z,266.57
2023-01-09T00:56:00.567Z,285.03
2023-01-09T00:58:28.388Z,262.67
2023-01-09T01:00:56.436Z,290.20
2023-01-09T01:03:24.114Z,280.47
2023-01-09T01:06:09.457Z,270.10
2023-01-09T01:08:37.471Z,272.10
2023-01-09T01:11:09.174Z,274.53
2023-01-09T01:13:37.074Z,285.73
2023-01-09T01:16:05.503Z,272.93
2023-01-09T01:18:33.487Z,291.37
2023-01-09T01:21:01.452Z,300.93
2023-01-09T01:23:29.223Z,278.13
2023-01-09T01:25:56.901Z,289.77
2023-01-09T01:28:25.901Z,286.77
2023-01-09T01:30:53.585Z,284.20
2023-01-09T01:33:21.297Z,276.60
2023-01-09T01:35:48.909Z,292.60
2023-01-09T01:38:16.600Z,285.27
2023-01-09T01:40:44.260Z,284.77
2023-01-09T01:43:13.393Z,254.17
2023-01-09T01:45:42.858Z,275.60
2023-01-09T01:48:13.785Z,274.70
2023-01-09T01:50:45.715Z,265.50
2023-01-09T01:53:17.260Z,251.97
2023-01-09T01:55:54.804Z,273.70
2023-01-09T01:58:22.616Z,256.30
2023-01-09T02:00:51.618Z,279.70
2023-01-09T02:03:23.204Z,278.53
2023-01-09T02:05:50.960Z,264.03
2023-01-09T02:08:19.183Z,267.17
2023-01-09T02:10:47.389Z,282.13
2023-01-09T02:13:15.758Z,256.73
2023-01-09T02:15:59.121Z,265.73
2023-01-09T02:18:42.214Z,257.10
2023-01-09T02:21:19.157Z,263.07
2023-01-09T02:24:08.545Z,252.93
2023-01-09T02:27:08.815Z,258.10
2023-01-09T02:30:09.352Z,245.33
2023-01-09T02:32:57.556Z,254.00
2023-01-09T02:35:35.912Z,243.70
2023-01-09T02:38:18.305Z,258.20
2023-01-09T02:40:54.464Z,277.47
2023-01-09T02:43:22.568Z,271.63
2023-01-09T02:45:50.295Z,276.60
2023-01-09T02:48:19.462Z,284.90
2023-01-09T02:51:00.341Z,268.23
2023-01-09T02:53:49.762Z,265.60
2023-01-09T02:56:54.755Z,253.73
2023-01-09T02:59:28.228Z,249.97
2023-01-09T03:02:14.324Z,253.07
2023-01-09T03:04:54.387Z,274.67
2023-01-09T03:07:25.994Z,258.60
2023-01-09T03:09:59.743Z,260.67
2023-01-09T03:12:32.540Z,273.20
2023-01-09T03:15:02.738Z,284.43
2023-01-09T03:17:37.250Z,292.57
2023-01-09T03:20:10.189Z,280.53
2023-01-09T03:22:40.202Z,262.77
2023-01-09T03:25:08.405Z,293.90
2023-01-09T03:27:36.210Z,276.47
2023-01-09T03:30:04.031Z,288.10
2023-01-09T03:32:31.668Z,291.63
2023-01-09T03:35:01.445Z,295.20
2023-01-09T03:37:30.716Z,262.47
2023-01-09T03:39:58.369Z,295.93
2023-01-09T03:42:25.975Z,277.70
2023-01-09T03:44:53.646Z,299.23
2023-01-09T03:47:21.241Z,302.63
2023-01-09T03:49:48.931Z,291.53
2023-01-09T03:52:16.596Z,279.10
2023-01-09T03:54:45.539Z,267.33
2023-01-09T03:57:13.184Z,281.50
2023-01-09T03:59:40.983Z,296.57
2023-01-09T04:02:08.835Z,288.10
2023-01-09T04:04:36.616Z,285.63
2023-01-09T04:07:04.263Z,294.97
2023-01-09T04:09:32.045Z,298.03
2023-01-09T04:12:01.209Z,291.67
2023-01-09T04:14:28.900Z,312.67
2023-01-09T04:16:56.605Z,289.73
2023-01-09T04:19:24.209Z,281.43
2023-01-09T04:21:51.873Z,294.30
2023-01-09T04:24:19.727Z,287.13
2023-01-09T04:26:47.343Z,282.33
2023-01-09T04:29:16.353Z,285.10
2023-01-09T04:31:44.118Z,284.73
2023-01-09T04:34:11.816Z,304.77
2023-01-09T04:36:40.078Z,296.00
2023-01-09T04:39:07.693Z,284.87
2023-01-09T04:41:50.711Z,282.87
2023-01-09T04:44:22.306Z,295.23
2023-01-09T04:46:50.017Z,274.20
2023-01-09T04:49:17.693Z,274.70
2023-01-09T04:51:45.385Z,268.57
2023-01-09T04:54:13.171Z,272.27
2023-01-09T04:56:40.902Z,279.87
2023-01-09T04:59:09.247Z,270.30
2023-01-09T05:01:38.426Z,256.43
2023-01-09T05:04:06.827Z,276.53
2023-01-09T05:06:35.207Z,242.87
2023-01-09T05:09:02.948Z,250.43
2023-01-09T05:11:30.669Z,266.27
2023-01-09T05:13:58.614Z,263.20
2023-01-09T05:16:26.307Z,256.10
2023-01-09T05:18:57.115Z,243.40
2023-01-09T05:21:25.104Z,253.37
2023-01-09T05:23:53.089Z,236.27
2023-01-09T05:26:23.823Z,210.83
2023-01-09T05:28:51.900Z,234.80
2023-01-09T05:31:19.988Z,232.07
2023-01-09T05:33:48.036Z,241.17
2023-01-09T05:36:17.075Z,236.63
2023-01-09T05:38:44.729Z,224.93
2023-01-09T05:41:12.673Z,230.53
2023-01-09T05:43:40.628Z,230.17
2023-01-09T05:46:08.318Z,232.27
2023-01-09T05:48:37.792Z,207.40
2023-01-09T05:51:05.620Z,225.63
2023-01-09T05:53:34.661Z,238.27
2023-01-09T05:56:02.424Z,235.83
2023-01-09T05:58:30.352Z,216.97
2023-01-09T06:00:59.639Z,209.63
2023-01-09T06:03:27.372Z,210.47
2023-01-09T06:05:55.077Z,215.13
2023-01-09T06:08:22.792Z,210.33
2023-01-09T06:10:51.831Z,201.90
2023-01-09T06:13:19.501Z,217.93
2023-01-09T06:15:48.756Z,215.43
2023-01-09T06:18:16.887Z,209.43
2023-01-09T06:20:45.341Z,197.90
2023-01-09T06:23:13.755Z,216.60
2023-01-09T06:25:42.077Z,195.87
2023-01-09T06:28:11.527Z,198.40
2023-01-09T06:30:39.280Z,225.43
2023-01-09T06:33:06.914Z,214.00
2023-01-09T06:35:34.558Z,188.40
2023-01-09T06:38:03.383Z,187.73
2023-01-09T06:40:31.107Z,202.30
2023-01-09T06:42:58.756Z,190.40
2023-01-09T06:45:27.778Z,184.33
2023-01-09T06:47:55.534Z,193.00
2023-01-09T06:50:23.175Z,186.80
2023-01-09T06:52:50.862Z,184.77
2023-01-09T06:55:18.879Z,206.60
2023-01-09T06:57:46.603Z,186.23
2023-01-09T07:00:14.944Z,191.63
2023-01-09T07:02:44.065Z,186.90
2023-01-09T07:05:12.467Z,190.77
2023-01-09T07:07:41.133Z,184.87
2023-01-09T07:10:11.376Z,191.03
2023-01-09T07:12:39.032Z,191.90
2023-01-09T07:15:07.736Z,219.87
2023-01-09T07:17:35.485Z,190.77
2023-01-09T07:20:05.319Z,188.87
2023-01-09T07:22:33.021Z,197.87
2023-01-09T07:25:00.856Z,198.03
2023-01-09T07:27:28.713Z,198.57
2023-01-09T07:29:56.386Z,201.23
2023-01-09T07:32:24.001Z,202.77
2023-01-09T07:34:51.620Z,197.93
2023-01-09T07:37:20.570Z,202.03
2023-01-09T07:39:48.353Z,190.33
2023-01-09T07:42:16.721Z,190.13
2023-01-09T07:44:44.380Z,183.63
2023-01-09T07:47:12.059Z,191.67
2023-01-09T07:49:40.271Z,185.67
2023-01-09T07:52:07.943Z,195.93
2023-01-09T07:54:37.116Z,190.80
2023-01-09T07:57:05.053Z,192.77
2023-01-09T07:59:32.958Z,182.13
2023-01-09T08:02:02.191Z,211.00
2023-01-09T08:04:29.893Z,197.37
2023-01-09T08:06:57.818Z,188.43
2023-01-09T08:09:25.517Z,192.53
2023-01-09T08:11:56.890Z,171.53
2023-01-09T08:14:25.292Z,182.37
2023-01-09T08:16:52.983Z,172.53
2023-01-09T08:19:20.632Z,185.77
2023-01-09T08:21:48.314Z,193.33
2023-01-09T08:24:15.975Z,189.70
2023-01-09T08:26:43.691Z,193.37
2023-01-09T08:29:13.259Z,192.80
2023-01-09T08:31:40.985Z,178.13
2023-01-09T08:34:08.767Z,204.93
2023-01-09T08:36:36.512Z,184.33
2023-01-09T08:39:04.599Z,191.40
2023-01-09T08:41:50.113Z,212.30
2023-01-09T08:44:36.899Z,208.40
2023-01-09T08:47:07.459Z,195.70
2023-01-09T08:49:36.579Z,181.77
2023-01-09T08:52:05.356Z,201.63
2023-01-09T08:54:33.365Z,194.97
2023-01-09T08:57:01.017Z,178.67
2023-01-09T08:59:30.383Z,180.83
2023-01-09T09:01:58.303Z,180.93
2023-01-09T09:04:26.523Z,189.83
2023-01-09T09:06:54.321Z,207.20
2023-01-09T09:09:22.023Z,194.23
2023-01-09T09:11:49.726Z,207.00
2023-01-09T09:14:34.897Z,206.93
2023-01-09T09:17:04.264Z,186.17
2023-01-09T09:19:31.979Z,203.53
2023-01-09T09:21:59.610Z,203.20
2023-01-09T09:24:27.649Z,207.70
2023-01-09T09:26:55.378Z,209.07
2023-01-09T09:29:23.010Z,190.70
2023-01-09T09:31:50.702Z,194.17
2023-01-09T09:34:19.728Z,209.57
2023-01-09T09:36:47.648Z,204.63
2023-01-09T09:39:15.291Z,184.60
2023-01-09T09:42:19.438Z,203.10
2023-01-09T09:45:03.021Z,184.80
2023-01-09T09:47:43.351Z,199.97
2023-01-09T09:50:29.557Z,191.70
2023-01-09T09:53:03.317Z,207.07
2023-01-09T09:55:33.274Z,210.70
2023-01-09T09:58:03.626Z,194.90
2023-01-09T10:00:31.666Z,208.60
2023-01-09T10:03:04.551Z,208.70
2023-01-09T10:05:36.498Z,191.20
2023-01-09T10:08:15.793Z,201.60
2023-01-09T10:10:52.189Z,213.90
2023-01-09T10:13:38.926Z,201.87
2023-01-09T10:16:17.441Z,181.60
2023-01-09T10:19:00.982Z,192.33
2023-01-09T10:21:38.569Z,203.77
2023-01-09T10:24:27.952Z,178.63
2023-01-09T10:26:57.044Z,185.63
2023-01-09T10:29:57.033Z,189.37
2023-01-09T10:32:46.391Z,185.37
2023-01-09T10:35:39.289Z,184.03
2023-01-09T10:38:19.303Z,182.17
2023-01-09T10:40:52.299Z,179.27
2023-01-09T10:43:30.058Z,199.23
2023-01-09T10:46:03.379Z,183.33
2023-01-09T10:48:34.950Z,177.43
2023-01-09T10:51:06.643Z,191.93
2023-01-09T10:53:38.842Z,202.90
2023-01-09T10:56:14.330Z,176.40
2023-01-09T10:58:41.986Z,182.33
2023-01-09T11:01:10.619Z,181.40
2023-01-09T11:03:38.992Z,185.97
2023-01-09T11:06:20.816Z,189.70
2023-01-09T11:08:53.083Z,182.53
2023-01-09T11:11:33.965Z,192.90
2023-01-09T11:14:08.198Z,209.37
2023-01-09T11:16:36.301Z,183.90
2023-01-09T11:19:04.113Z,182.07
2023-01-09T11:21:35.894Z,184.40
2023-01-09T11:24:29.529Z,175.10
2023-01-09T11:27:23.312Z,177.70
2023-01-09T11:30:22.421Z,164.20
2023-01-09T11:32:50.421Z,168.27
2023-01-09T11:35:24.719Z,172.63
2023-01-09T11:38:03.655Z,186.07
2023-01-09T11:40:39.696Z,188.37
2023-01-09T11:43:16.535Z,180.37
2023-01-09T11:46:00.110Z,176.47
2023-01-09T11:48:39.111Z,195.43
2023-01-09T11:51:18.168Z,181.20
2023-01-09T11:54:13.321Z,191.27
2023-01-09T11:56:42.832Z,181.63
2023-01-09T11:59:13.606Z,178.63
2023-01-09T12:02:01.776Z,188.87
2023-01-09T12:04:34.414Z,177.90
2023-01-09T12:07:26.171Z,200.33
2023-01-09T12:10:04.308Z,177.43
2023-01-09T12:12:43.407Z,184.50
2023-01-09T12:15:25.899Z,173.63
2023-01-09T12:18:23.520Z,181.67
2023-01-09T12:21:02.402Z,163.50
2023-01-09T12:23:45.710Z,178.50
2023-01-09T12:26:18.779Z,166.93
2023-01-09T12:29:11.492Z,172.33
2023-01-09T12:32:00.719Z,162.07
2023-01-09T12:35:00.285Z,170.13
2023-01-09T12:37:46.700Z,175.87
2023-01-09T12:40:35.769Z,172.93
2023-01-09T12:43:13.429Z,181.20
2023-01-09T12:45:58.399Z,186.33
2023-01-09T12:48:59.337Z,183.80
2023-01-09T12:51:32.615Z,175.47
2023-01-09T12:54:05.536Z,173.30
2023-01-09T12:56:38.273Z,159.47
2023-01-09T12:59:21.663Z,177.50
2023-01-09T13:01:52.104Z,178.80
2023-01-09T13:04:25.157Z,179.87
2023-01-09T13:06:58.291Z,172.97
2023-01-09T13:09:28.331Z,191.80
2023-01-09T13:12:04.028Z,200.23
2023-01-09T13:14:46.942Z,201.67
2023-01-09T13:17:22.089Z,174.00
2023-01-09T13:19:49.728Z,192.23
2023-01-09T13:22:19.036Z,200.20
2023-01-09T13:25:07.514Z,193.57
2023-01-09T13:27:39.297Z,205.97
2023-01-09T13:30:18.925Z,195.93
2023-01-09T13:33:03.040Z,201.57
2023-01-09T13:35:30.765Z,195.20
2023-01-09T13:37:58.575Z,196.53
2023-01-09T13:40:30.180Z,205.83
2023-01-09T13:42:59.678Z,201.37
2023-01-09T13:45:30.187Z,198.67
2023-01-09T13:48:29.324Z,199.47
2023-01-09T13:51:30.794Z,205.23
2023-01-09T13:53:58.588Z,188.00
2023-01-09T13:56:26.361Z,197.87
2023-01-09T13:59:27.036Z,201.27
2023-01-09T14:01:54.795Z,193.93
2023-01-09T14:04:45.886Z,195.93
2023-01-09T14:07:22.346Z,190.90
2023-01-09T14:09:58.215Z,199.13
2023-01-09T14:12:27.331Z,204.37
2023-01-09T14:14:58.309Z,200.10
2023-01-09T14:17:32.072Z,199.90
2023-01-09T14:20:04.003Z,207.23
2023-01-09T14:22:42.557Z,186.47
2023-01-09T14:25:25.522Z,181.03
2023-01-09T14:28:18.319Z,198.33
2023-01-09T14:31:06.048Z,190.67
2023-01-09T14:33:33.887Z,212.57
2023-01-09T14:36:12.066Z,194.47
2023-01-09T14:38:43.404Z,196.33
2023-01-09T14:41:21.213Z,191.43
2023-01-09T14:44:01.354Z,198.23
2023-01-09T14:46:35.360Z,188.90
2023-01-09T14:49:08.255Z,195.10
2023-01-09T14:51:39.625Z,188.63
2023-01-09T14:54:23.066Z,204.60
2023-01-09T14:56:50.706Z,192.20
2023-01-09T14:59:18.627Z,192.57
2023-01-09T15:01:51.382Z,205.83
2023-01-09T15:04:31.556Z,186.33
2023-01-09T15:07:00.717Z,185.90
2023-01-09T15:09:30.197Z,190.17
2023-01-09T15:12:03.340Z,186.30
2023-01-09T15:14:34.085Z,184.47
2023-01-09T15:17:02.949Z,192.87
2023-01-09T15:19:31.848Z,177.23
2023-01-09T15:22:03.629Z,196.67
2023-01-09T15:24:34.228Z,188.00
2023-01-09T15:27:12.089Z,181.33
2023-01-09T15:29:39.789Z,175.10
2023-01-09T15:32:10.941Z,178.77
2023-01-09T15:34:38.659Z,173.37
2023-01-09T15:37:24.784Z,176.00
2023-01-09T15:39:52.840Z,175.23
2023-01-09T15:42:51.342Z,186.60
2023-01-09T15:45:24.580Z,170.80
2023-01-09T15:47:52.388Z,183.93
2023-01-09T15:50:27.037Z,188.47
2023-01-09T15:52:57.345Z,188.37
2023-01-09T15:55:28.952Z,188.33
2023-01-09T15:57:57.226Z,185.30
2023-01-09T16:00:39.306Z,197.13
2023-01-09T16:03:18.799Z,174.53
2023-01-09T16:05:49.310Z,186.77
2023-01-09T16:08:25.057Z,193.37
2023-01-09T16:10:54.450Z,190.77
2023-01-09T16:13:24.217Z,176.80
2023-01-09T16:15:52.865Z,191.67
2023-01-09T16:18:23.397Z,193.53
2023-01-09T16:21:02.780Z,184.37
2023-01-09T16:23:34.347Z,185.37
2023-01-09T16:26:07.473Z,182.73
2023-01-09T16:28:35.243Z,183.43
2023-01-09T16:31:08.063Z,191.93
2023-01-09T16:33:36.062Z,185.97
2023-01-09T16:36:05.268Z,182.93
2023-01-09T16:38:34.429Z,201.70
2023-01-09T16:41:22.720Z,184.97
2023-01-09T16:43:51.697Z,174.17
2023-01-09T16:46:20.989Z,180.67
2023-01-09T16:48:49.060Z,181.17
2023-01-09T16:51:18.465Z,196.93
2023-01-09T16:53:47.745Z,198.67
2023-01-09T16:56:19.833Z,199.13
2023-01-09T16:58:47.531Z,200.37
2023-01-09T17:01:15.802Z,177.57
2023-01-09T17:03:44.483Z,190.40
2023-01-09T17:06:16.841Z,190.93
2023-01-09T17:08:45.167Z,182.67
2023-01-09T17:11:21.175Z,181.27
2023-01-09T17:13:49.126Z,184.23
2023-01-09T17:16:17.990Z,184.97
2023-01-09T17:18:45.658Z,186.83
2023-01-09T17:21:17.768Z,175.67
2023-01-09T17:23:46.062Z,165.23
2023-01-09T17:26:41.953Z,177.20
2023-01-09T17:29:09.599Z,160.47
2023-01-09T17:31:38.700Z,171.67
2023-01-09T17:34:06.555Z,181.57
2023-01-09T17:36:35.071Z,181.43
2023-01-09T17:39:03.053Z,182.60
2023-01-09T17:41:33.623Z,167.30
2023-01-09T17:44:01.394Z,176.13
2023-01-09T17:46:32.292Z,166.80
2023-01-09T17:49:00.296Z,172.87
2023-01-09T17:51:29.259Z,165.17
2023-01-09T17:53:57.105Z,165.57
2023-01-09T17:56:27.761Z,184.77
2023-01-09T17:58:57.168Z,162.17
2023-01-09T18:01:24.843Z,189.40
2023-01-09T18:03:52.492Z,189.30
2023-01-09T18:06:22.414Z,178.20
2023-01-09T18:08:50.247Z,180.20
2023-01-09T18:11:19.343Z,171.77
2023-01-09T18:13:48.002Z,162.63
2023-01-09T18:16:18.571Z,183.33
2023-01-09T18:18:47.190Z,170.17
2023-01-09T18:21:17.723Z,165.73
2023-01-09T18:23:45.438Z,177.13
2023-01-09T18:26:20.244Z,163.97
2023-01-09T18:28:49.435Z,167.67
2023-01-09T18:31:22.622Z,173.33
2023-01-09T18:33:52.626Z,169.33
2023-01-09T18:36:21.759Z,197.10
2023-01-09T18:38:53.482Z,181.03
2023-01-09T18:41:21.475Z,178.97
2023-01-09T18:43:50.126Z,169.27
2023-01-09T18:46:23.829Z,178.57
2023-01-09T18:48:53.469Z,178.53
2023-01-09T18:51:21.768Z,176.67
2023-01-09T18:53:50.098Z,181.40
2023-01-09T18:56:19.701Z,184.47
2023-01-09T18:58:47.521Z,174.77
2023-01-09T19:01:15.973Z,179.37
2023-01-09T19:03:46.132Z,181.93
2023-01-09T19:06:13.877Z,169.33
2023-01-09T19:08:41.667Z,185.57
2023-01-09T19:11:09.615Z,188.10
2023-01-09T19:13:38.690Z,183.00
2023-01-09T19:16:08.762Z,175.33
2023-01-09T19:18:39.733Z,185.17
2023-01-09T19:21:13.654Z,181.30
2023-01-09T19:23:42.584Z,188.73
2023-01-09T19:26:16.783Z,181.20
2023-01-09T19:28:46.626Z,171.33
2023-01-09T19:31:14.519Z,179.70
2023-01-09T19:33:42.277Z,174.77
2023-01-09T19:36:10.261Z,195.57
2023-01-09T19:38:39.422Z,171.40
2023-01-09T19:41:09.433Z,160.57
2023-01-09T19:43:38.880Z,183.23
2023-01-09T19:46:09.256Z,172.20
2023-01-09T19:48:37.078Z,174.23
2023-01-09T19:51:07.236Z,175.73
2023-01-09T19:53:35.487Z,172.90
2023-01-09T19:56:13.197Z,159.47
2023-01-09T19:58:41.381Z,181.83
2023-01-09T20:01:10.836Z,176.33
2023-01-09T20:03:40.306Z,160.17
2023-01-09T20:06:13.864Z,172.53
2023-01-09T20:08:41.594Z,174.03
2023-01-09T20:11:10.720Z,163.67
2023-01-09T20:13:38.623Z,183.27
2023-01-09T20:16:07.551Z,175.03
2023-01-09T20:18:36.214Z,170.33
2023-01-09T20:21:04.018Z,176.23
2023-01-09T20:23:33.273Z,164.07
2023-01-09T20:26:02.163Z,166.33
2023-01-09T20:28:31.201Z,171.70
2023-01-09T20:30:59.000Z,174.97
2023-01-09T20:33:26.725Z,171.80
2023-01-09T20:35:54.335Z,174.30
2023-01-09T20:38:24.013Z,163.77
2023-01-09T20:40:55.755Z,170.80
2023-01-09T20:43:24.646Z,177.40
2023-01-09T20:45:53.681Z,183.47
2023-01-09T20:48:21.364Z,169.20
2023-01-09T20:50:49.052Z,178.43
2023-01-09T20:53:16.769Z,178.53
2023-01-09T20:55:44.385Z,180.47
2023-01-09T20:58:12.066Z,166.93
2023-01-09T21:00:39.724Z,181.03
2023-01-09T21:03:08.723Z,178.30
2023-01-09T21:05:41.032Z,172.70
2023-01-09T21:08:09.025Z,181.23
2023-01-09T21:10:36.669Z,193.63
2023-01-09T21:13:04.302Z,178.53
2023-01-09T21:15:31.944Z,193.80
2023-01-09T21:17:59.686Z,193.03
2023-01-09T21:20:28.739Z,185.37
2023-01-09T21:22:56.415Z,200.23
2023-01-09T21:25:24.166Z,181.63
2023-01-09T21:27:51.885Z,188.60
2023-01-09T21:30:19.603Z,174.00
2023-01-09T21:32:47.259Z,177.07
2023-01-09T21:35:15.790Z,173.27
2023-01-09T21:37:45.097Z,178.23
2023-01-09T21:40:16.019Z,171.50
2023-01-09T21:43:01.370Z,185.97
2023-01-09T21:45:46.873Z,180.17
2023-01-09T21:48:14.632Z,157.77
2023-01-09T21:50:42.445Z,171.13
2023-01-09T21:53:11.403Z,171.80
2023-01-09T21:55:39.109Z,166.57
2023-01-09T21:58:07.015Z,164.47
2023-01-09T22:00:34.717Z,160.93
2023-01-09T22:03:02.429Z,177.03
2023-01-09T22:05:30.155Z,180.60
2023-01-09T22:07:57.783Z,176.40
2023-01-09T22:10:26.983Z,171.30
2023-01-09T22:13:12.102Z,171.50
2023-01-09T22:15:41.210Z,186.87
2023-01-09T22:18:08.885Z,172.87
2023-01-09T22:20:37.201Z,185.80
2023-01-09T22:23:08.510Z,172.47
2023-01-09T22:25:41.880Z,176.90
2023-01-09T22:28:10.959Z,180.53
2023-01-09T22:30:40.695Z,177.37
2023-01-09T22:33:10.722Z,177.53
2023-01-09T22:35:38.779Z,184.57
2023-01-09T22:38:06.445Z,169.17
2023-01-09T22:40:34.144Z,175.97
2023-01-09T22:43:03.163Z,194.07
2023-01-09T22:45:30.914Z,193.40
2023-01-09T22:47:58.826Z,178.73
2023-01-09T22:50:26.694Z,195.73
2023-01-09T22:52:54.927Z,182.50
2023-01-09T22:55:22.569Z,184.67
2023-01-09T22:57:50.225Z,174.50
2023-01-09T23:00:19.881Z,188.20
2023-01-09T23:02:48.456Z,188.93
2023-01-09T23:05:16.264Z,190.57
2023-01-09T23:07:43.923Z,182.63
2023-01-09T23:10:12.170Z,186.93
2023-01-09T23:12:39.828Z,178.57
2023-01-09T23:15:09.940Z,175.43
2023-01-09T23:17:38.967Z,179.17
2023-01-09T23:20:07.343Z,179.10
2023-01-09T23:22:34.975Z,179.47
2023-01-09T23:25:02.606Z,171.27
2023-01-09T23:27:30.357Z,183.33
2023-01-09T23:29:57.968Z,188.63
2023-01-09T23:32:25.634Z,181.93
2023-01-09T23:34:55.372Z,196.13
2023-01-09T23:37:23.060Z,184.80
2023-01-09T23:39:50.898Z,173.63
2023-01-09T23:42:36.232Z,192.63
2023-01-09T23:45:04.155Z,165.17
2023-01-09T23:47:31.822Z,192.20
2023-01-09T23:50:00.877Z,172.43
2023-01-09T23:52:28.482Z,180.67
2023-01-09T23:54:56.644Z,177.63
2023-01-09T23:57:25.068Z,184.97
2023-01-09T23:59:52.686Z,168.83
